Time;durP1;ratioP1;P1;durP2;ratioP2;P2;SDS_P1;SDS_P2;PMS_P1;PMS_P2;Temp;Humidity;BMP_temperature;BMP_pressure;BME280_temperature;BME280_humidity;BME280_pressure;Samples;Min_cycle;Max_cycle;Signal;HPM_P1;HPM_P2
2022/03/02 00:01:30;;;;;;;75.22;49.42;;;;;;;0.77;67.62;101560.53;2749674;85;21076;-68
2022/03/02 00:05:33;;;;;;;78.20;47.13;;;;;;;0.74;67.29;101550.11;2749931;85;21075;-68
2022/03/02 00:09:34;;;;;;;80.97;40.05;;;;;;;0.73;67.40;101546.66;2749826;86;21119;-68
2022/03/02 00:13:36;;;;;;;69.03;41.15;;;;;;;0.75;67.52;101546.17;2750108;86;21072;-68
2022/03/02 00:17:38;;;;;;;68.42;42.95;;;;;;;0.73;67.24;101547.08;2749872;86;21522;-68
2022/03/02 00:21:40;;;;;;;71.00;42.78;;;;;;;0.66;67.71;101545.03;2750553;86;21100;-68
2022/03/02 00:25:42;;;;;;;89.52;49.35;;;;;;;0.67;67.48;101550.69;2749458;86;21664;-68
2022/03/02 00:29:43;;;;;;;78.75;45.92;;;;;;;0.73;67.34;101553.62;2750082;86;21001;-68
2022/03/02 00:33:45;;;;;;;84.17;49.45;;;;;;;0.75;66.80;101554.03;2750325;86;21037;-68
2022/03/02 00:37:46;;;;;;;80.67;46.42;;;;;;;0.65;66.66;101549.42;2750575;85;21104;-68
2022/03/02 00:41:55;;;;;;;94.62;49.38;;;;;;;0.55;66.56;101550.48;2750317;86;21092;-68
2022/03/02 00:45:56;;;;;;;92.97;47.75;;;;;;;0.32;66.77;101546.56;2749766;86;21410;-67
2022/03/02 00:49:59;;;;;;;96.75;52.90;;;;;;;0.21;68.00;101547.22;2750264;86;21064;-68
2022/03/02 00:54:01;;;;;;;83.33;52.23;;;;;;;0.23;68.68;101540.20;2750002;86;21049;-68
2022/03/02 00:58:05;;;;;;;94.83;54.63;;;;;;;0.27;69.45;101527.47;2749585;85;21128;-67
2022/03/02 01:02:07;;;;;;;98.35;55.00;;;;;;;0.29;69.26;101520.45;2750469;86;21135;-68
2022/03/02 01:06:09;;;;;;;97.53;55.83;;;;;;;0.32;69.03;101512.53;2750012;85;21592;-67
2022/03/02 01:10:12;;;;;;;97.00;56.37;;;;;;;0.38;69.28;101511.09;2749882;86;21025;-68
2022/03/02 01:14:14;;;;;;;87.10;57.83;;;;;;;0.39;68.46;101506.30;2743794;85;21101;-67
2022/03/02 01:18:16;;;;;;;91.70;56.05;;;;;;;0.32;68.12;101507.30;2726498;86;21057;-68
2022/03/02 01:22:19;;;;;;;93.33;56.55;;;;;;;0.27;68.10;101501.30;2726666;87;21022;-67
2022/03/02 01:26:24;;;;;;;84.85;52.35;;;;;;;0.21;68.26;101490.48;2726622;87;21109;-67
2022/03/02 01:30:26;;;;;;;79.85;47.53;;;;;;;0.09;68.15;101492.89;2727361;87;22045;-67
2022/03/02 01:34:28;;;;;;;91.20;52.13;;;;;;;-0.02;68.16;101501.37;2726893;86;21049;-67
2022/03/02 01:38:30;;;;;;;86.20;52.08;;;;;;;-0.10;68.67;101491.51;2726701;87;21049;-67
2022/03/02 01:42:41;;;;;;;93.27;52.88;;;;;;;-0.18;68.98;101491.21;2726160;87;21062;-67
2022/03/02 01:46:43;;;;;;;109.03;61.05;;;;;;;-0.19;69.25;101489.91;2726410;87;21582;-67
2022/03/02 01:50:44;;;;;;;84.70;50.80;;;;;;;-0.13;68.80;101488.95;2726589;87;21048;-67
2022/03/02 01:54:46;;;;;;;90.90;56.02;;;;;;;-0.07;68.63;101480.98;2726475;87;21068;-67
2022/03/02 01:58:48;;;;;;;99.10;59.23;;;;;;;-0.05;68.68;101480.50;2726336;87;21580;-67
2022/03/02 02:02:50;;;;;;;103.90;63.30;;;;;;;-0.08;68.72;101474.03;2726550;87;21069;-67
2022/03/02 02:06:52;;;;;;;97.35;58.28;;;;;;;-0.15;68.82;101470.23;2726529;87;21112;-67
2022/03/02 02:10:56;;;;;;;103.87;58.98;;;;;;;-0.22;68.44;101457.28;2726298;87;21664;-68
2022/03/02 02:14:57;;;;;;;95.35;60.55;;;;;;;-0.30;68.54;101458.73;2735318;86;21036;-69
2022/03/02 02:18:59;;;;;;;99.58;57.35;;;;;;;-0.32;68.69;101461.81;2750038;86;21573;-69
2022/03/02 02:23:01;;;;;;;104.78;62.88;;;;;;;-0.42;68.69;101451.08;2749674;86;21065;-69
2022/03/02 02:27:03;;;;;;;96.47;55.35;;;;;;;-0.55;69.08;101446.09;2749293;85;21064;-69
2022/03/02 02:31:05;;;;;;;92.15;59.67;;;;;;;-0.67;69.57;101438.00;2749905;86;21093;-69
2022/03/02 02:35:10;;;;;;;95.77;56.68;;;;;;;-0.74;69.89;101435.05;2749337;86;21156;-68
2022/03/02 02:39:11;;;;;;;103.17;56.30;;;;;;;-0.77;70.17;101430.77;2749750;85;21560;-69
2022/03/02 02:43:16;;;;;;;113.30;61.75;;;;;;;-0.92;70.37;101434.92;2750042;86;21064;-68
2022/03/02 02:47:18;;;;;;;97.47;57.45;;;;;;;-1.03;70.57;101423.33;2749498;85;21092;-68
2022/03/02 02:51:19;;;;;;;93.47;59.18;;;;;;;-1.07;70.70;101426.87;2750268;86;21073;-68
2022/03/02 02:55:25;;;;;;;101.20;57.80;;;;;;;-1.11;70.30;101420.83;2750223;86;21052;-69
2022/03/02 02:59:26;;;;;;;103.30;60.30;;;;;;;-1.21;70.01;101407.05;2749153;86;21052;-68
2022/03/02 03:03:28;;;;;;;111.97;66.70;;;;;;;-1.16;70.06;101420.05;2749889;86;21127;-69
2022/03/02 03:07:30;;;;;;;117.65;68.62;;;;;;;-1.22;70.99;101407.05;2749434;86;21060;-68
2022/03/02 03:11:32;;;;;;;114.15;65.97;;;;;;;-1.37;71.03;101377.70;2749777;86;21075;-68
2022/03/02 03:15:35;;;;;;;121.57;70.28;;;;;;;-1.19;70.84;101407.88;2738718;86;21076;-69
2022/03/02 03:19:36;;;;;;;131.78;71.17;;;;;;;-1.26;69.95;101387.98;2725483;86;21088;-68
2022/03/02 03:23:38;;;;;;;114.92;64.72;;;;;;;-1.26;69.95;101387.98;2686872;87;21072;-68
2022/03/02 03:27:42;;;;;;;104.75;61.37;;;;;;;-1.07;70.05;101404.68;2714275;87;21053;-68
2022/03/02 03:31:44;;;;;;;120.05;63.08;;;;;;;-1.08;69.91;101398.58;2726247;87;21073;-68
2022/03/02 03:35:45;;;;;;;94.28;55.10;;;;;;;-1.15;70.28;101396.50;2726173;87;21588;-68
2022/03/02 03:39:47;;;;;;;105.55;59.88;;;;;;;-1.12;70.51;101400.83;2726424;87;21096;-69
2022/03/02 03:43:49;;;;;;;95.47;61.23;;;;;;;-1.07;70.61;101395.08;2726665;87;21428;-69
2022/03/02 03:47:53;;;;;;;118.28;70.42;;;;;;;-1.01;70.71;101380.61;2724829;87;21025;-69
2022/03/02 03:51:54;;;;;;;143.65;79.50;;;;;;;-1.04;70.72;101384.58;2719798;87;21017;-69
2022/03/02 03:55:56;;;;;;;121.97;72.87;;;;;;;-1.04;70.85;101383.27;2702034;86;21077;-68
2022/03/02 03:59:57;;;;;;;112.90;67.17;;;;;;;-0.96;70.56;101377.09;2725618;87;21081;-69
2022/03/02 04:03:59;;;;;;;130.75;67.78;;;;;;;-1.01;69.84;101375.38;2725594;87;21062;-69
2022/03/02 04:08:00;;;;;;;97.20;64.85;;;;;;;-1.07;69.37;101378.10;2725979;87;21163;-69
2022/03/02 04:12:03;;;;;;;122.17;65.87;;;;;;;-1.14;69.35;101368.66;2726789;87;21060;-69
2022/03/02 04:16:06;;;;;;;104.80;65.80;;;;;;;-1.25;69.11;101363.59;2737722;86;21064;-69
2022/03/02 04:20:09;;;;;;;111.35;67.55;;;;;;;-1.31;70.00;101358.02;2749321;86;21704;-69
2022/03/02 04:24:11;;;;;;;101.27;60.92;;;;;;;-1.31;70.00;101358.02;2750150;86;21087;-69
2022/03/02 04:28:13;;;;;;;99.13;64.30;;;;;;;-1.29;69.84;101351.45;2749878;86;21080;-70
2022/03/02 04:32:15;;;;;;;107.27;62.23;;;;;;;-1.28;70.71;101349.26;2750032;86;21076;-69
2022/03/02 04:36:16;;;;;;;120.87;70.42;;;;;;;-1.34;71.23;101345.45;2748837;86;21025;-69
2022/03/02 04:40:18;;;;;;;109.55;67.75;;;;;;;-1.44;71.63;101348.64;2749912;86;21076;-69
2022/03/02 04:44:20;;;;;;;108.95;61.80;;;;;;;-1.48;71.85;101346.50;2749369;85;21060;-69
2022/03/02 04:48:22;;;;;;;116.85;66.60;;;;;;;-1.67;73.40;101335.91;2749438;86;21517;-68
2022/03/02 04:52:23;;;;;;;107.63;66.20;;;;;;;-1.67;73.40;101335.91;2749647;86;20993;-69
2022/03/02 04:56:25;;;;;;;115.10;68.17;;;;;;;-1.83;73.83;101332.66;2748815;86;21033;-69
2022/03/02 05:00:32;;;;;;;116.97;68.92;;;;;;;-1.90;73.88;101331.45;2749336;85;21068;-69
2022/03/02 05:04:33;;;;;;;106.92;64.35;;;;;;;-1.96;73.41;101330.23;2748912;86;21053;-69
2022/03/02 05:08:35;;;;;;;102.85;62.38;;;;;;;-1.95;72.59;101334.98;2749172;85;21128;-67
2022/03/02 05:12:38;;;;;;;101.07;61.20;;;;;;;-1.98;72.30;101329.36;2749057;86;21080;-67
2022/03/02 05:16:39;;;;;;;119.00;69.95;;;;;;;-2.01;72.48;101339.84;2752291;86;21087;-67
2022/03/02 05:20:41;;;;;;;104.78;65.35;;;;;;;-2.04;73.53;101333.36;2754309;85;21639;-68
2022/03/02 05:24:43;;;;;;;106.05;64.90;;;;;;;-2.01;74.04;101325.48;2754629;86;21107;-68
2022/03/02 05:28:45;;;;;;;106.47;64.32;;;;;;;-2.12;74.70;101322.17;2754536;86;21024;-68
2022/03/02 05:32:47;;;;;;;103.30;61.08;;;;;;;-2.21;75.16;101324.00;2754738;86;21095;-69
2022/03/02 05:36:49;;;;;;;106.27;65.55;;;;;;;-2.32;75.65;101321.52;2754429;85;21115;-68
2022/03/02 05:40:51;;;;;;;99.90;63.40;;;;;;;-2.31;75.49;101323.24;2754800;85;21036;-68
2022/03/02 05:44:53;;;;;;;112.17;63.48;;;;;;;-2.26;75.37;101323.62;2754743;86;21031;-67
2022/03/02 05:48:55;;;;;;;99.92;61.02;;;;;;;-2.28;74.86;101334.51;2755148;85;21080;-68
2022/03/02 05:52:57;;;;;;;107.43;65.47;;;;;;;-2.16;74.75;101339.59;2754474;85;21052;-67
2022/03/02 05:56:58;;;;;;;109.48;63.28;;;;;;;-2.09;73.76;101342.99;2754471;85;21012;-67
2022/03/02 06:01:00;;;;;;;111.55;61.40;;;;;;;-2.04;73.13;101356.83;2754390;86;21110;-67
2022/03/02 06:05:02;;;;;;;113.30;67.27;;;;;;;-2.04;73.08;101355.52;2754602;85;21047;-67
2022/03/02 06:09:07;;;;;;;108.40;64.67;;;;;;;-2.03;73.90;101359.42;2754896;85;21063;-67
2022/03/02 06:13:10;;;;;;;114.65;67.27;;;;;;;-2.03;73.90;101359.42;2754417;86;21115;-68
2022/03/02 06:17:13;;;;;;;97.95;62.90;;;;;;;-1.76;74.21;101357.80;2754857;84;21067;-68
2022/03/02 06:21:24;;;;;;;114.92;70.83;;;;;;;-1.30;74.18;101352.34;2755062;86;21128;-68
2022/03/02 06:25:27;;;;;;;93.17;58.95;;;;;;;-1.30;74.18;101352.34;2754871;85;21028;-68
2022/03/02 06:29:29;;;;;;;105.63;61.18;;;;;;;-0.97;74.06;101355.31;2754792;86;21080;-68
2022/03/02 06:33:30;;;;;;;114.37;67.30;;;;;;;-0.74;74.14;101339.25;2755272;86;21031;-68
2022/03/02 06:37:36;;;;;;;129.42;72.45;;;;;;;-0.45;73.36;101339.14;2755263;86;21079;-68
2022/03/02 06:41:57;;;;;;;110.48;68.90;;;;;;;-0.25;72.57;101338.36;2755328;85;21091;-68
2022/03/02 06:46:12;;;;;;;104.95;66.10;;;;;;;-0.17;72.15;101339.93;2755148;85;21020;-68
2022/03/02 06:50:16;;;;;;;106.63;67.47;;;;;;;-0.17;72.36;101346.47;2755026;85;21088;-68
2022/03/02 06:54:21;;;;;;;105.85;63.92;;;;;;;-0.03;72.20;101346.18;2755348;85;21083;-68
2022/03/02 06:58:23;;;;;;;131.52;77.22;;;;;;;0.23;72.50;101329.52;2730854;86;21592;-68
2022/03/02 07:02:42;;;;;;;132.00;82.53;;;;;;;0.45;71.14;101332.97;2755518;86;21767;-68
2022/03/02 07:06:46;;;;;;;120.22;72.08;;;;;;;0.63;70.52;101340.83;2754681;85;21035;-68
2022/03/02 07:10:51;;;;;;;110.25;63.33;;;;;;;0.65;70.33;101339.91;2755349;86;21062;-68
2022/03/02 07:14:54;;;;;;;102.92;64.87;;;;;;;0.65;70.39;101338.60;2755492;86;21019;-68
2022/03/02 07:18:56;;;;;;;100.10;64.07;;;;;;;0.68;70.59;101335.91;2755038;86;21104;-68
2022/03/02 07:23:00;;;;;;;106.65;59.33;;;;;;;0.80;70.87;101341.76;2755314;85;21599;-68
2022/03/02 07:27:02;;;;;;;113.42;67.40;;;;;;;0.95;70.82;101343.98;2755182;86;21039;-68
2022/03/02 07:31:08;;;;;;;98.12;59.18;;;;;;;1.15;70.97;101343.93;2755587;86;21340;-67
2022/03/02 07:35:10;;;;;;;97.30;60.25;;;;;;;1.33;71.12;101341.30;2755237;85;21075;-68
2022/03/02 07:39:12;;;;;;;95.42;60.15;;;;;;;1.51;70.74;101338.63;2754985;86;21135;-67
2022/03/02 07:43:15;;;;;;;108.40;65.10;;;;;;;1.66;70.15;101339.12;2755747;86;21056;-67
2022/03/02 07:47:19;;;;;;;110.17;69.45;;;;;;;1.82;70.43;101327.73;2755524;86;21619;-67
2022/03/02 07:51:22;;;;;;;109.48;72.50;;;;;;;1.97;70.70;101335.64;2756289;86;21008;-68
2022/03/02 07:55:24;;;;;;;132.43;73.75;;;;;;;2.02;70.85;101327.17;2755980;86;21035;-67
2022/03/02 07:59:26;;;;;;;119.85;74.60;;;;;;;2.14;70.58;101326.78;2755153;86;21079;-67
2022/03/02 08:03:28;;;;;;;121.85;73.57;;;;;;;2.24;70.45;101333.09;2755969;85;21063;-67
2022/03/02 08:07:30;;;;;;;120.80;70.78;;;;;;;2.34;70.19;101327.95;2755430;86;21663;-67
2022/03/02 08:11:33;;;;;;;111.47;67.40;;;;;;;2.52;70.46;101328.28;2755840;85;21002;-67
2022/03/02 08:15:35;;;;;;;106.35;65.90;;;;;;;2.67;70.31;101324.34;2756408;85;21087;-67
2022/03/02 08:19:37;;;;;;;93.82;65.42;;;;;;;2.66;70.49;101324.77;2755667;86;21584;-66
2022/03/02 08:23:41;;;;;;;130.03;77.90;;;;;;;2.77;70.40;101326.21;2756418;86;21099;-67
2022/03/02 08:27:44;;;;;;;179.20;103.42;;;;;;;2.97;70.03;101323.78;2755733;86;21600;-67
2022/03/02 08:31:48;;;;;;;126.20;77.72;;;;;;;3.28;68.68;101326.67;2756420;86;21124;-67
2022/03/02 08:35:51;;;;;;;117.82;74.97;;;;;;;3.41;68.58;101309.16;2756651;86;21567;-67
2022/03/02 08:39:53;;;;;;;92.67;52.25;;;;;;;3.42;67.67;101313.50;2756438;86;21127;-67
2022/03/02 08:43:57;;;;;;;121.67;70.67;;;;;;;3.48;66.85;101313.74;2756709;86;21067;-68
2022/03/02 08:48:05;;;;;;;144.62;90.50;;;;;;;3.36;65.29;101311.09;2757074;86;21028;-67
2022/03/02 08:52:06;;;;;;;95.00;57.60;;;;;;;3.57;62.94;101297.17;2683787;87;21349;-67
2022/03/02 08:56:08;;;;;;;88.78;52.88;;;;;;;3.39;63.38;101285.52;2753167;86;21124;-67
2022/03/02 09:00:14;;;;;;;74.85;49.08;;;;;;;3.57;64.12;101293.22;2753437;86;21128;-67
2022/03/02 09:04:17;;;;;;;92.82;53.52;;;;;;;3.62;64.26;101292.19;2753525;86;21119;-67
2022/03/02 09:08:19;;;;;;;108.07;61.55;;;;;;;3.60;65.62;101289.60;2753291;86;21084;-67
2022/03/02 09:12:21;;;;;;;69.70;45.58;;;;;;;3.93;63.63;101285.33;2753748;86;21104;-67
2022/03/02 09:16:22;;;;;;;74.53;47.23;;;;;;;3.87;63.15;101281.62;2746016;86;21085;-67
2022/03/02 09:20:24;;;;;;;74.22;50.10;;;;;;;4.17;63.14;101273.91;2752395;86;21565;-67
2022/03/02 09:24:30;;;;;;;89.87;52.53;;;;;;;4.21;62.22;101268.44;2752480;86;21052;-67
2022/03/02 09:28:35;;;;;;;87.72;51.05;;;;;;;4.34;61.63;101269.28;2752396;86;21084;-67
2022/03/02 09:32:40;;;;;;;71.33;46.50;;;;;;;4.46;61.34;101263.98;2752525;86;21064;-67
2022/03/02 09:36:44;;;;;;;79.25;44.15;;;;;;;4.57;60.44;101261.78;2752364;86;21096;-67
2022/03/02 09:40:50;;;;;;;76.77;48.98;;;;;;;4.47;60.71;101261.73;2752130;86;21592;-67
2022/03/02 09:44:58;;;;;;;;;;;;;;;4.76;61.42;101260.53;2755228;86;21120;-67
2022/03/02 09:49:10;;;;;;;74.53;49.67;;;;;;;4.92;60.18;101258.58;2751932;86;20149;-67
2022/03/02 09:53:14;;;;;;;77.08;44.85;;;;;;;5.08;60.51;101258.77;2752889;86;21080;-67
2022/03/02 09:57:19;;;;;;;65.67;44.77;;;;;;;5.22;59.41;101254.23;2773327;85;21011;-67
2022/03/02 10:01:24;;;;;;;74.77;46.23;;;;;;;5.34;59.44;101250.20;2728632;87;21038;-67
2022/03/02 10:05:30;;;;;;;67.67;42.70;;;;;;;5.35;57.92;101234.76;2776647;85;21012;-67
2022/03/02 10:09:34;;;;;;;62.93;39.70;;;;;;;5.44;58.46;101239.61;2776790;85;21074;-67
2022/03/02 10:13:35;;;;;;;73.30;41.70;;;;;;;5.43;57.95;101234.81;2773141;86;21058;-67
2022/03/02 10:17:41;;;;;;;64.80;39.33;;;;;;;5.59;58.43;101230.13;2772805;85;21098;-67
2022/03/02 10:21:47;;;;;;;67.27;38.50;;;;;;;5.66;57.25;101226.75;2773595;86;21042;-67
2022/03/02 10:26:05;;;;;;;56.90;35.25;;;;;;;5.73;56.97;101225.55;2772448;86;21850;-67
2022/03/02 10:30:12;;;;;;;56.77;30.10;;;;;;;5.85;55.09;101220.16;2804845;85;21068;-67
2022/03/02 10:34:33;;;;;;;40.48;25.00;;;;;;;5.82;54.46;101217.67;2729428;87;20979;-67
2022/03/02 10:38:52;;;;;;;50.95;30.20;;;;;;;6.00;53.70;101217.25;2776879;85;21099;-67
2022/03/02 10:43:03;;;;;;;37.08;24.85;;;;;;;5.98;53.46;101208.06;2773456;86;21114;-67
2022/03/02 10:47:06;;;;;;;44.30;25.45;;;;;;;6.12;51.56;101215.38;2804964;85;21055;-67
2022/03/02 10:51:11;;;;;;;37.40;24.95;;;;;;;5.96;51.91;101206.45;2727028;87;21082;-67
2022/03/02 10:55:13;;;;;;;36.23;22.52;;;;;;;6.10;52.03;101206.67;2777373;85;21063;-67
2022/03/02 10:59:17;;;;;;;30.02;22.55;;;;;;;6.06;51.09;101211.69;2777106;85;21098;-67
2022/03/02 11:03:20;;;;;;;30.62;17.87;;;;;;;6.24;50.30;101199.84;2773807;86;21587;-67
2022/03/02 11:07:23;;;;;;;29.05;19.02;;;;;;;6.03;48.51;101197.80;2773563;86;21146;-67
2022/03/02 11:11:26;;;;;;;35.03;22.45;;;;;;;6.06;48.48;101193.20;2805233;84;21071;-67
2022/03/02 11:15:31;;;;;;;31.50;19.67;;;;;;;6.24;49.55;101187.95;2729797;87;20967;-67
2022/03/02 11:19:38;;;;;;;30.48;19.35;;;;;;;6.22;47.84;101189.82;2774556;85;21474;-67
2022/03/02 11:23:49;;;;;;;35.98;19.77;;;;;;;6.37;47.90;101174.53;2775936;85;21019;-67
2022/03/02 11:27:54;;;;;;;31.50;19.95;;;;;;;6.31;48.45;101176.17;2730911;87;21062;-67
2022/03/02 11:31:56;;;;;;;35.65;22.32;;;;;;;6.39;48.76;101171.34;2773103;86;21034;-67
2022/03/02 11:36:06;;;;;;;27.17;20.25;;;;;;;6.40;47.73;101169.09;2773264;86;21082;-67
2022/03/02 11:40:12;;;;;;;27.17;16.90;;;;;;;6.24;47.79;101166.37;2803693;85;21047;-67
2022/03/02 11:44:33;;;;;;;33.92;21.07;;;;;;;6.33;48.39;101162.41;2727463;87;21444;-66
2022/03/02 11:48:42;;;;;;;26.17;19.25;;;;;;;6.29;47.23;101152.45;2776212;85;21106;-67
2022/03/02 11:52:46;;;;;;;33.35;20.23;;;;;;;6.24;47.21;101157.12;2776345;85;21026;-66
2022/03/02 11:56:48;;;;;;;27.30;19.17;;;;;;;6.20;46.90;101145.45;2776408;85;21109;-66
2022/03/02 12:00:49;;;;;;;30.25;19.45;;;;;;;6.34;47.63;101142.98;2776555;85;21113;-67
2022/03/02 12:05:00;;;;;;;31.10;19.95;;;;;;;6.40;46.44;101130.77;2776446;85;21555;-67
2022/03/02 12:09:03;;;;;;;25.30;17.75;;;;;;;6.49;45.91;101132.57;2776258;85;21094;-67
2022/03/02 12:13:05;;;;;;;30.52;21.33;;;;;;;6.60;46.35;101122.28;2804054;85;21019;-67
2022/03/02 12:17:14;;;;;;;31.20;19.67;;;;;;;6.64;46.31;101107.96;2757562;86;21070;-67
2022/03/02 12:21:18;;;;;;;37.85;20.02;;;;;;;6.61;47.26;101120.02;2813228;84;21605;-67
2022/03/02 12:25:24;;;;;;;31.42;18.62;;;;;;;6.64;46.92;101105.31;2814431;84;21026;-67
2022/03/02 12:29:26;;;;;;;27.73;20.70;;;;;;;6.67;45.74;101099.03;2814479;84;21118;-67
2022/03/02 12:33:27;;;;;;;25.32;17.12;;;;;;;6.75;45.36;101101.27;2814636;84;21058;-67
2022/03/02 12:37:30;;;;;;;28.70;20.57;;;;;;;6.65;46.56;101095.13;2814674;84;21027;-67
2022/03/02 12:41:32;;;;;;;22.70;16.30;;;;;;;6.77;46.33;101083.53;2814695;84;21068;-67
2022/03/02 12:45:41;;;;;;;19.80;12.50;;;;;;;6.80;45.38;101080.27;2814711;84;21106;-67
2022/03/02 12:49:45;;;;;;;30.02;18.02;;;;;;;6.53;43.60;101076.80;2814596;84;21034;-67
2022/03/02 12:53:48;;;;;;;20.97;15.50;;;;;;;6.52;45.52;101070.30;2814718;84;21093;-67
2022/03/02 12:57:49;;;;;;;31.15;20.10;;;;;;;6.53;44.95;101079.93;2814508;84;21042;-67
2022/03/02 13:01:51;;;;;;;24.75;17.37;;;;;;;6.63;46.22;101066.59;2814760;84;21039;-67
2022/03/02 13:05:58;;;;;;;19.23;14.98;;;;;;;6.78;44.63;101066.28;2814783;84;21011;-67
2022/03/02 13:10:04;;;;;;;27.45;16.07;;;;;;;6.83;42.84;101064.69;2814473;84;21044;-67
2022/03/02 13:14:31;;;;;;;30.72;15.75;;;;;;;6.89;43.62;101063.50;2815028;84;21026;-67
2022/03/02 13:18:39;;;;;;;25.30;15.93;;;;;;;6.99;43.41;101052.83;2809973;84;21015;-67
2022/03/02 13:22:43;;;;;;;24.07;14.70;;;;;;;6.97;44.31;101052.89;2737153;86;21051;-67
2022/03/02 13:27:08;;;;;;;20.25;16.05;;;;;;;6.97;42.50;101047.61;2805168;85;21027;-67
2022/03/02 13:31:13;;;;;;;34.88;20.43;;;;;;;7.00;44.79;101048.75;2760162;86;21075;-67
2022/03/02 13:35:15;;;;;;;;;;;;;;;6.98;45.50;101046.67;2807492;85;21066;-67
2022/03/02 13:39:23;;;;;;;29.37;20.65;;;;;;;7.13;44.59;101042.80;2805737;84;20143;-67
2022/03/02 13:43:29;;;;;;;34.98;18.23;;;;;;;7.20;44.60;101034.06;2806167;84;21027;-67
2022/03/02 13:47:31;;;;;;;24.52;16.75;;;;;;;7.16;44.93;101033.37;2805731;84;21102;-67
2022/03/02 13:51:50;;;;;;;24.63;17.12;;;;;;;7.25;44.03;101024.89;2806120;85;21061;-67
2022/03/02 13:55:57;;;;;;;28.67;17.60;;;;;;;7.39;44.45;101023.28;2805476;85;21003;-67
2022/03/02 14:00:24;;;;;;;28.25;19.07;;;;;;;7.49;44.58;101017.86;2804183;84;21121;-67
2022/03/02 14:04:25;;;;;;;36.30;25.05;;;;;;;7.58;44.95;101022.61;2806136;84;21055;-67
2022/03/02 14:08:27;;;;;;;31.02;20.43;;;;;;;7.67;44.72;101019.06;2805744;85;20984;-67
2022/03/02 14:12:29;;;;;;;25.30;17.17;;;;;;;7.68;44.90;101007.53;2806294;84;20976;-67
2022/03/02 14:16:31;;;;;;;31.40;18.95;;;;;;;7.68;44.72;101016.80;2806014;85;21050;-67
2022/03/02 14:20:35;;;;;;;32.60;17.48;;;;;;;7.75;44.18;101003.56;2737519;85;21071;-69
2022/03/02 14:24:39;;;;;;;29.82;17.25;;;;;;;7.80;43.55;101006.79;2724782;86;21061;-65
2022/03/02 14:28:41;;;;;;;26.73;17.70;;;;;;;7.81;43.98;100995.73;2736004;86;21079;-67
2022/03/02 14:32:47;;;;;;;27.85;17.48;;;;;;;7.89;44.10;100997.94;2726628;86;21090;-68
2022/03/02 14:37:04;;;;;;;22.48;14.20;;;;;;;7.92;44.05;100995.10;2718389;87;21049;-68
2022/03/02 14:41:06;;;;;;;34.48;18.00;;;;;;;7.96;43.79;100984.23;2730175;87;21029;-68
2022/03/02 14:45:31;;;;;;;27.37;18.17;;;;;;;7.91;42.88;100980.98;2730050;87;21097;-68
2022/03/02 14:49:41;;;;;;;27.13;17.10;;;;;;;7.89;43.22;100986.86;2730369;87;21124;-68
2022/03/02 14:53:43;;;;;;;26.00;16.75;;;;;;;7.94;43.65;100982.61;2719546;87;21060;-68
2022/03/02 14:57:45;;;;;;;24.60;17.75;;;;;;;7.81;42.78;100975.87;2730293;87;21057;-68
2022/03/02 15:01:46;;;;;;;21.48;15.03;;;;;;;7.84;43.42;100971.23;2730379;87;21101;-68
2022/03/02 15:05:55;;;;;;;19.92;14.10;;;;;;;7.85;42.41;100957.03;2726039;86;21087;-67
2022/03/02 15:10:12;;;;;;;27.10;20.55;;;;;;;7.93;42.59;100954.42;2712415;87;21047;-66
2022/03/02 15:18:36;;;;;;;20.90;16.45;;;;;;;8.01;43.01;100946.84;2712325;87;21063;-68
2022/03/02 15:22:41;;;;;;;26.57;17.90;;;;;;;7.91;42.82;100943.91;2684177;88;21091;-68
2022/03/02 15:26:52;;;;;;;29.05;17.27;;;;;;;7.87;42.30;100934.44;2705588;87;21064;-68
2022/03/02 15:30:57;;;;;;;30.40;17.27;;;;;;;7.83;43.08;100929.79;2654346;89;21499;-68
2022/03/02 15:35:00;;;;;;;28.45;18.75;;;;;;;7.79;43.13;100924.30;2630933;89;21694;-69
2022/03/02 15:39:02;;;;;;;30.97;17.32;;;;;;;7.77;43.66;100922.22;2654835;89;21122;-68
2022/03/02 15:43:09;;;;;;;23.30;15.50;;;;;;;7.64;43.61;100919.46;2618124;90;21130;-68
2022/03/02 15:47:10;;;;;;;;;;;;;;;7.43;43.96;100913.62;2624424;89;21004;-68
2022/03/02 15:51:13;;;;;;;29.87;18.62;;;;;;;7.21;44.64;100916.20;2683532;88;20581;-68
2022/03/02 15:55:21;;;;;;;29.80;18.40;;;;;;;7.06;44.71;100919.72;2686122;87;21102;-68
2022/03/02 15:59:24;;;;;;;28.05;19.15;;;;;;;6.93;45.14;100910.31;2710303;87;21102;-68
2022/03/02 16:03:30;;;;;;;24.05;16.42;;;;;;;6.90;45.39;100915.33;2710855;87;21044;-69
2022/03/02 16:07:33;;;;;;;26.87;16.45;;;;;;;6.98;45.21;100920.19;2708971;87;21074;-68
2022/03/02 16:11:40;;;;;;;27.02;18.85;;;;;;;7.03;44.78;100919.90;2710584;87;21761;-68
2022/03/02 16:15:51;;;;;;;29.92;19.52;;;;;;;7.06;44.78;100917.08;2710177;86;21098;-69
2022/03/02 16:19:53;;;;;;;27.77;18.75;;;;;;;6.98;45.48;100917.53;2708835;86;21196;-69
2022/03/02 16:23:55;;;;;;;31.10;19.82;;;;;;;6.80;46.04;100906.19;2683419;88;21575;-69
2022/03/02 16:28:07;;;;;;;30.23;20.37;;;;;;;6.73;46.73;100900.88;2675425;88;21054;-68
2022/03/02 16:32:07;;;;;;;35.40;20.48;;;;;;;6.56;46.45;100900.02;2664031;89;21078;-69
2022/03/02 16:36:10;;;;;;;32.35;18.37;;;;;;;6.42;46.34;100895.00;2691078;87;21086;-69
2022/03/02 16:40:13;;;;;;;29.52;20.70;;;;;;;6.24;46.88;100892.91;2708868;87;21039;-67
2022/03/02 16:44:14;;;;;;;26.20;19.27;;;;;;;6.04;47.46;100885.20;2696162;88;21164;-67
2022/03/02 16:48:17;;;;;;;41.50;22.30;;;;;;;5.83;49.56;100891.97;2665875;89;21524;-66
2022/03/02 16:52:20;;;;;;;34.03;23.60;;;;;;;5.61;49.54;100893.54;2665591;89;20991;-66
2022/03/02 16:56:22;;;;;;;33.08;22.85;;;;;;;5.42;50.18;100889.20;2666452;88;21110;-66
2022/03/02 17:00:30;;;;;;;33.20;22.52;;;;;;;5.23;50.61;100890.60;2684376;88;28128;-67
2022/03/02 17:04:31;;;;;;;27.50;18.62;;;;;;;5.06;51.27;100896.69;2708160;87;21054;-66
2022/03/02 17:08:33;;;;;;;29.48;19.30;;;;;;;4.87;52.56;100904.17;2708057;86;21094;-68
2022/03/02 17:12:34;;;;;;;27.20;19.12;;;;;;;4.69;53.41;100897.53;2680462;88;21098;-65
2022/03/02 17:16:36;;;;;;;24.27;18.12;;;;;;;4.55;53.43;100898.66;2665222;89;21090;-65
2022/03/02 17:20:38;;;;;;;32.13;18.15;;;;;;;4.43;53.18;100893.03;2676876;88;21110;-65
2022/03/02 17:24:40;;;;;;;25.57;18.48;;;;;;;4.32;53.56;100886.08;2682713;88;21074;-65
2022/03/02 17:28:42;;;;;;;34.60;18.67;;;;;;;4.22;53.39;100880.38;2683010;87;21042;-65
2022/03/02 17:32:46;;;;;;;33.63;21.10;;;;;;;4.14;53.38;100883.39;2680166;88;21106;-66
2022/03/02 17:36:47;;;;;;;182.47;89.13;;;;;;;4.05;53.65;100881.16;2713809;86;21073;-65
2022/03/02 17:40:49;;;;;;;1340.03;664.87;;;;;;;3.88;54.53;100876.66;2712161;87;21654;-65
2022/03/02 17:44:54;;;;;;;729.20;389.98;;;;;;;3.79;54.80;100884.49;2694824;86;21030;-65
2022/03/02 17:48:56;;;;;;;375.75;165.75;;;;;;;3.70;55.15;100887.51;2711675;87;21330;-65
2022/03/02 17:52:57;;;;;;;127.22;64.15;;;;;;;3.62;55.18;100888.31;2716526;87;21100;-65
2022/03/02 17:57:00;;;;;;;716.10;393.80;;;;;;;3.50;55.14;100888.38;2716252;86;21083;-65
2022/03/02 18:01:03;;;;;;;992.77;543.58;;;;;;;3.42;55.94;100895.28;2715917;87;21072;-65
2022/03/02 18:05:05;;;;;;;443.87;215.32;;;;;;;3.43;55.65;100899.62;2761038;86;21115;-66
2022/03/02 18:09:07;;;;;;;456.80;220.17;;;;;;;3.39;56.23;100896.25;2761420;86;21092;-66
2022/03/02 18:13:09;;;;;;;456.47;221.80;;;;;;;3.41;55.87;100898.83;2760004;86;21079;-65
2022/03/02 18:17:11;;;;;;;408.87;191.47;;;;;;;3.37;55.92;100894.15;2760704;86;21008;-68
2022/03/02 18:21:13;;;;;;;199.42;98.25;;;;;;;3.32;55.80;100892.19;2716722;86;21084;-67
2022/03/02 18:25:15;;;;;;;226.62;109.60;;;;;;;3.31;55.98;100880.40;2697705;88;21105;-66
2022/03/02 18:29:19;;;;;;;257.50;125.62;;;;;;;3.28;55.99;100883.55;2669465;89;21122;-68
2022/03/02 18:33:20;;;;;;;236.22;111.10;;;;;;;3.15;56.74;100885.01;2751485;86;21046;-66
2022/03/02 18:37:28;;;;;;;377.70;178.78;;;;;;;3.02;57.11;100878.53;2715909;87;21381;-67